sensor_id;sensor_type;location;lat;lon;timestamp;pressure;altitude;pressure_sealevel;temperature;humidity
13974;BME280;7060;43.770;4.008;2022-08-27T00:00:51;100619.44;;;23.69;51.28
13974;BME280;7060;43.770;4.008;2022-08-27T00:03:20;100598.16;;;23.47;51.84
13974;BME280;7060;43.770;4.008;2022-08-27T00:05:50;100622.25;;;23.50;52.14
13974;BME280;7060;43.770;4.008;2022-08-27T00:08:18;100623.88;;;23.40;52.27
13974;BME280;7060;43.770;4.008;2022-08-27T00:10:48;100623.03;;;23.27;52.90
13974;BME280;7060;43.770;4.008;2022-08-27T00:13:18;100617.25;;;23.17;53.40
13974;BME280;7060;43.770;4.008;2022-08-27T00:15:47;100250.25;;;20.83;53.30
13974;BME280;7060;43.770;4.008;2022-08-27T00:18:16;100629.66;;;23.02;53.47
13974;BME280;7060;43.770;4.008;2022-08-27T00:20:49;100511.06;;;22.26;53.74
13974;BME280;7060;43.770;4.008;2022-08-27T00:23:20;100573.38;;;22.59;53.45
13974;BME280;7060;43.770;4.008;2022-08-27T00:25:51;100557.31;;;22.51;53.84
13974;BME280;7060;43.770;4.008;2022-08-27T00:28:24;100559.06;;;22.45;53.90
13974;BME280;7060;43.770;4.008;2022-08-27T00:30:54;100616.59;;;22.74;53.91
13974;BME280;7060;43.770;4.008;2022-08-27T00:33:23;100538.69;;;22.29;54.05
13974;BME280;7060;43.770;4.008;2022-08-27T00:35:53;100597.06;;;22.58;54.02
13974;BME280;7060;43.770;4.008;2022-08-27T00:38:22;100624.59;;;22.69;53.88
13974;BME280;7060;43.770;4.008;2022-08-27T00:40:52;100624.22;;;22.65;53.82
13974;BME280;7060;43.770;4.008;2022-08-27T00:43:24;100356.50;;;20.93;54.39
13974;BME280;7060;43.770;4.008;2022-08-27T00:45:57;100626.25;;;22.51;54.57
13974;BME280;7060;43.770;4.008;2022-08-27T00:48:31;100510.75;;;21.79;54.16
13974;BME280;7060;43.770;4.008;2022-08-27T00:51:05;100616.25;;;22.45;54.33
13974;BME280;7060;43.770;4.008;2022-08-27T00:53:34;100615.03;;;22.41;54.24
13974;BME280;7060;43.770;4.008;2022-08-27T00:56:08;100487.22;;;21.67;54.33
13974;BME280;7060;43.770;4.008;2022-08-27T00:58:41;100612.38;;;22.35;54.73
13974;BME280;7060;43.770;4.008;2022-08-27T01:01:13;100555.03;;;21.93;54.99
13974;BME280;7060;43.770;4.008;2022-08-27T01:03:46;100611.31;;;22.17;55.14
13974;BME280;7060;43.770;4.008;2022-08-27T01:06:17;100359.13;;;20.57;54.92
13974;BME280;7060;43.770;4.008;2022-08-27T01:08:51;100620.78;;;22.15;54.97
13974;BME280;7060;43.770;4.008;2022-08-27T01:11:27;100623.53;;;22.08;55.09
13974;BME280;7060;43.770;4.008;2022-08-27T01:13:57;100617.88;;;22.10;55.40
13974;BME280;7060;43.770;4.008;2022-08-27T01:16:33;100617.28;;;22.08;55.44
13974;BME280;7060;43.770;4.008;2022-08-27T01:19:07;100606.06;;;21.98;55.28
13974;BME280;7060;43.770;4.008;2022-08-27T01:21:44;100613.53;;;22.02;55.45
13974;BME280;7060;43.770;4.008;2022-08-27T01:24:27;100609.47;;;21.93;55.65
13974;BME280;7060;43.770;4.008;2022-08-27T01:26:57;100604.13;;;21.80;55.99
13974;BME280;7060;43.770;4.008;2022-08-27T01:29:28;100610.19;;;21.82;55.76
13974;BME280;7060;43.770;4.008;2022-08-27T01:31:59;100601.56;;;21.85;55.89
13974;BME280;7060;43.770;4.008;2022-08-27T01:34:35;100593.47;;;21.78;55.61
13974;BME280;7060;43.770;4.008;2022-08-27T01:37:04;100571.41;;;21.61;55.83
13974;BME280;7060;43.770;4.008;2022-08-27T01:39:36;100595.13;;;21.73;56.09
13974;BME280;7060;43.770;4.008;2022-08-27T01:42:08;100543.41;;;21.29;56.69
13974;BME280;7060;43.770;4.008;2022-08-27T01:44:47;100592.97;;;21.56;56.82
13974;BME280;7060;43.770;4.008;2022-08-27T01:47:18;100594.91;;;21.49;57.01
13974;BME280;7060;43.770;4.008;2022-08-27T01:49:48;100341.94;;;19.93;57.10
13974;BME280;7060;43.770;4.008;2022-08-27T01:52:20;100592.69;;;21.40;57.42
13974;BME280;7060;43.770;4.008;2022-08-27T01:54:54;100597.13;;;21.34;57.51
13974;BME280;7060;43.770;4.008;2022-08-27T01:57:30;100481.78;;;20.54;57.72
13974;BME280;7060;43.770;4.008;2022-08-27T02:00:00;100597.81;;;21.23;57.65
13974;BME280;7060;43.770;4.008;2022-08-27T02:02:43;100523.66;;;20.71;57.91
13974;BME280;7060;43.770;4.008;2022-08-27T02:05:14;100602.44;;;21.16;57.66
13974;BME280;7060;43.770;4.008;2022-08-27T02:07:43;100112.97;;;18.16;57.80
13974;BME280;7060;43.770;4.008;2022-08-27T02:10:16;100597.03;;;21.16;57.99
13974;BME280;7060;43.770;4.008;2022-08-27T02:12:46;100567.00;;;20.98;57.70
13974;BME280;7060;43.770;4.008;2022-08-27T02:15:16;100578.00;;;21.16;57.68
13974;BME280;7060;43.770;4.008;2022-08-27T02:17:48;100594.91;;;21.18;57.59
13974;BME280;7060;43.770;4.008;2022-08-27T02:20:21;100580.28;;;21.19;57.22
13974;BME280;7060;43.770;4.008;2022-08-27T02:22:55;100586.22;;;21.09;57.42
13974;BME280;7060;43.770;4.008;2022-08-27T02:25:28;100447.47;;;20.21;57.14
13974;BME280;7060;43.770;4.008;2022-08-27T02:27:58;100587.91;;;21.04;57.10
13974;BME280;7060;43.770;4.008;2022-08-27T02:30:28;100599.41;;;21.06;57.27
13974;BME280;7060;43.770;4.008;2022-08-27T02:32:58;100585.41;;;21.02;57.13
13974;BME280;7060;43.770;4.008;2022-08-27T02:35:29;100455.38;;;20.16;57.61
13974;BME280;7060;43.770;4.008;2022-08-27T02:38:00;100548.13;;;20.71;57.47
13974;BME280;7060;43.770;4.008;2022-08-27T02:40:30;100575.78;;;20.93;57.51
13974;BME280;7060;43.770;4.008;2022-08-27T02:43:00;100593.84;;;20.81;57.86
13974;BME280;7060;43.770;4.008;2022-08-27T02:45:29;100439.41;;;19.88;58.12
13974;BME280;7060;43.770;4.008;2022-08-27T02:47:58;100327.59;;;19.15;58.29
13974;BME280;7060;43.770;4.008;2022-08-27T02:50:27;100503.81;;;20.19;58.36
13974;BME280;7060;43.770;4.008;2022-08-27T02:52:57;100419.03;;;19.73;58.03
13974;BME280;7060;43.770;4.008;2022-08-27T02:55:26;100575.50;;;20.70;58.23
13974;BME280;7060;43.770;4.008;2022-08-27T02:58:00;100513.84;;;20.25;58.06
13974;BME280;7060;43.770;4.008;2022-08-27T03:00:30;100326.97;;;19.07;58.55
13974;BME280;7060;43.770;4.008;2022-08-27T03:03:01;100546.41;;;20.32;58.76
13974;BME280;7060;43.770;4.008;2022-08-27T03:05:30;100488.94;;;19.77;59.07
13974;BME280;7060;43.770;4.008;2022-08-27T03:08:06;100522.84;;;20.06;58.84
13974;BME280;7060;43.770;4.008;2022-08-27T03:10:36;100570.41;;;20.35;59.31
13974;BME280;7060;43.770;4.008;2022-08-27T03:13:12;100568.56;;;20.29;59.53
13974;BME280;7060;43.770;4.008;2022-08-27T03:15:42;100253.06;;;18.27;59.87
13974;BME280;7060;43.770;4.008;2022-08-27T03:18:11;100572.75;;;20.25;60.05
13974;BME280;7060;43.770;4.008;2022-08-27T03:20:47;100581.50;;;20.27;59.98
13974;BME280;7060;43.770;4.008;2022-08-27T03:23:18;100569.41;;;20.30;60.03
13974;BME280;7060;43.770;4.008;2022-08-27T03:25:51;100563.34;;;20.27;60.02
13974;BME280;7060;43.770;4.008;2022-08-27T03:28:23;100561.25;;;20.23;60.22
13974;BME280;7060;43.770;4.008;2022-08-27T03:30:55;100544.13;;;20.16;60.35
13974;BME280;7060;43.770;4.008;2022-08-27T03:33:28;100434.31;;;19.47;60.40
13974;BME280;7060;43.770;4.008;2022-08-27T03:35:58;100553.09;;;20.16;60.33
13974;BME280;7060;43.770;4.008;2022-08-27T03:38:27;100526.03;;;19.97;60.58
13974;BME280;7060;43.770;4.008;2022-08-27T03:40:56;100457.69;;;19.42;60.62
13974;BME280;7060;43.770;4.008;2022-08-27T03:43:30;100552.31;;;20.03;60.63
13974;BME280;7060;43.770;4.008;2022-08-27T03:46:03;100547.72;;;20.03;60.66
13974;BME280;7060;43.770;4.008;2022-08-27T03:48:33;100542.72;;;20.00;60.98
13974;BME280;7060;43.770;4.008;2022-08-27T03:51:04;100497.91;;;19.71;60.92
13974;BME280;7060;43.770;4.008;2022-08-27T03:53:35;100541.88;;;20.00;60.78
13974;BME280;7060;43.770;4.008;2022-08-27T03:56:10;100545.66;;;19.92;60.89
13974;BME280;7060;43.770;4.008;2022-08-27T03:58:41;100541.47;;;19.83;61.28
13974;BME280;7060;43.770;4.008;2022-08-27T04:01:11;100552.16;;;19.78;61.34
13974;BME280;7060;43.770;4.008;2022-08-27T04:03:40;100551.94;;;19.73;61.50
13974;BME280;7060;43.770;4.008;2022-08-27T04:06:09;100326.34;;;18.32;61.50
13974;BME280;7060;43.770;4.008;2022-08-27T04:08:38;100517.94;;;19.37;61.71
13974;BME280;7060;43.770;4.008;2022-08-27T04:11:07;100357.81;;;18.53;61.72
13974;BME280;7060;43.770;4.008;2022-08-27T04:13:36;100336.75;;;18.35;61.66
13974;BME280;7060;43.770;4.008;2022-08-27T04:16:07;100497.88;;;19.25;61.77
13974;BME280;7060;43.770;4.008;2022-08-27T04:18:36;100300.06;;;18.06;61.82
13974;BME280;7060;43.770;4.008;2022-08-27T04:21:09;100370.91;;;18.49;61.70
13974;BME280;7060;43.770;4.008;2022-08-27T04:23:39;100545.25;;;19.55;61.51
13974;BME280;7060;43.770;4.008;2022-08-27T04:26:09;100516.25;;;19.36;61.96
13974;BME280;7060;43.770;4.008;2022-08-27T04:28:38;100539.00;;;19.55;62.07
13974;BME280;7060;43.770;4.008;2022-08-27T04:31:08;100197.34;;;17.45;61.76
13974;BME280;7060;43.770;4.008;2022-08-27T04:33:42;100483.72;;;19.16;61.91
13974;BME280;7060;43.770;4.008;2022-08-27T04:36:19;100543.78;;;19.53;61.89
13974;BME280;7060;43.770;4.008;2022-08-27T04:38:49;100484.16;;;19.20;61.66
13974;BME280;7060;43.770;4.008;2022-08-27T04:41:18;100536.50;;;19.60;61.55
13974;BME280;7060;43.770;4.008;2022-08-27T04:43:50;100540.88;;;19.61;61.29
13974;BME280;7060;43.770;4.008;2022-08-27T04:46:25;100560.28;;;19.65;61.07
13974;BME280;7060;43.770;4.008;2022-08-27T04:48:58;100549.44;;;19.65;61.17
13974;BME280;7060;43.770;4.008;2022-08-27T04:51:28;100546.72;;;19.58;61.29
13974;BME280;7060;43.770;4.008;2022-08-27T04:54:00;100549.22;;;19.53;61.41
13974;BME280;7060;43.770;4.008;2022-08-27T04:56:29;100379.00;;;18.43;61.81
13974;BME280;7060;43.770;4.008;2022-08-27T04:59:00;100562.78;;;19.46;61.84
13974;BME280;7060;43.770;4.008;2022-08-27T05:01:31;100214.56;;;17.31;61.85
13974;BME280;7060;43.770;4.008;2022-08-27T05:04:03;100389.84;;;18.36;62.08
13974;BME280;7060;43.770;4.008;2022-08-27T05:06:33;100562.53;;;19.35;62.45
13974;BME280;7060;43.770;4.008;2022-08-27T05:09:04;100558.97;;;19.34;62.19
13974;BME280;7060;43.770;4.008;2022-08-27T05:11:33;100567.38;;;19.39;62.38
13974;BME280;7060;43.770;4.008;2022-08-27T05:14:03;100566.13;;;19.42;62.24
13974;BME280;7060;43.770;4.008;2022-08-27T05:16:35;100566.13;;;19.42;62.18
13974;BME280;7060;43.770;4.008;2022-08-27T05:19:04;100397.94;;;18.30;62.28
13974;BME280;7060;43.770;4.008;2022-08-27T05:21:36;100577.59;;;19.37;62.32
13974;BME280;7060;43.770;4.008;2022-08-27T05:24:07;100514.56;;;18.96;62.18
13974;BME280;7060;43.770;4.008;2022-08-27T05:26:37;100426.91;;;18.49;62.23
13974;BME280;7060;43.770;4.008;2022-08-27T05:29:05;100578.22;;;19.39;62.31
13974;BME280;7060;43.770;4.008;2022-08-27T05:31:38;100578.59;;;19.36;62.28
13974;BME280;7060;43.770;4.008;2022-08-27T05:34:07;100577.34;;;19.32;62.31
13974;BME280;7060;43.770;4.008;2022-08-27T05:36:40;100576.50;;;19.32;62.69
13974;BME280;7060;43.770;4.008;2022-08-27T05:39:16;100577.13;;;19.34;62.62
13974;BME280;7060;43.770;4.008;2022-08-27T05:41:44;100403.75;;;18.26;62.72
13974;BME280;7060;43.770;4.008;2022-08-27T05:44:14;100470.72;;;18.72;62.96
13974;BME280;7060;43.770;4.008;2022-08-27T05:47:05;100582.41;;;19.48;62.65
13974;BME280;7060;43.770;4.008;2022-08-27T05:49:33;100527.94;;;19.23;62.33
13974;BME280;7060;43.770;4.008;2022-08-27T05:52:07;100574.69;;;19.65;62.11
13974;BME280;7060;43.770;4.008;2022-08-27T05:54:36;100573.84;;;19.78;62.10
13974;BME280;7060;43.770;4.008;2022-08-27T05:57:07;100573.41;;;19.94;61.58
13974;BME280;7060;43.770;4.008;2022-08-27T05:59:36;100584.44;;;20.12;61.41
13974;BME280;7060;43.770;4.008;2022-08-27T06:02:23;100560.63;;;20.14;61.23
13974;BME280;7060;43.770;4.008;2022-08-27T06:04:53;100578.97;;;20.39;61.10
13974;BME280;7060;43.770;4.008;2022-08-27T06:07:22;100498.88;;;20.03;61.00
13974;BME280;7060;43.770;4.008;2022-08-27T06:09:51;100343.03;;;19.15;60.99
13974;BME280;7060;43.770;4.008;2022-08-27T06:12:20;100488.19;;;20.21;61.04
13974;BME280;7060;43.770;4.008;2022-08-27T06:14:54;100573.56;;;20.83;60.82
13974;BME280;7060;43.770;4.008;2022-08-27T06:17:27;100569.72;;;20.98;60.65
13974;BME280;7060;43.770;4.008;2022-08-27T06:19:57;100524.91;;;20.75;60.43
13974;BME280;7060;43.770;4.008;2022-08-27T06:22:26;100426.72;;;20.34;59.65
13974;BME280;7060;43.770;4.008;2022-08-27T06:24:54;100581.81;;;21.40;59.54
13974;BME280;7060;43.770;4.008;2022-08-27T06:27:23;100588.88;;;21.72;59.01
13974;BME280;7060;43.770;4.008;2022-08-27T06:29:52;100583.72;;;22.14;58.66
13974;BME280;7060;43.770;4.008;2022-08-27T06:32:20;100538.56;;;22.43;57.41
13974;BME280;7060;43.770;4.008;2022-08-27T06:34:51;100584.00;;;23.27;55.45
13974;BME280;7060;43.770;4.008;2022-08-27T06:37:20;100578.28;;;23.82;53.92
13974;BME280;7060;43.770;4.008;2022-08-27T06:39:49;100577.09;;;24.36;53.27
13974;BME280;7060;43.770;4.008;2022-08-27T06:42:19;100585.53;;;24.86;51.71
13974;BME280;7060;43.770;4.008;2022-08-27T06:44:51;100543.59;;;25.26;50.31
13974;BME280;7060;43.770;4.008;2022-08-27T06:47:22;100574.56;;;26.10;49.38
13974;BME280;7060;43.770;4.008;2022-08-27T06:49:52;100572.00;;;26.59;47.48
13974;BME280;7060;43.770;4.008;2022-08-27T06:52:21;100543.00;;;26.90;44.86
13974;BME280;7060;43.770;4.008;2022-08-27T06:54:50;100553.16;;;27.43;44.40
13974;BME280;7060;43.770;4.008;2022-08-27T06:57:19;100528.94;;;27.77;42.70
13974;BME280;7060;43.770;4.008;2022-08-27T06:59:51;100542.97;;;28.18;41.89
13974;BME280;7060;43.770;4.008;2022-08-27T07:02:20;100554.78;;;28.76;40.72
13974;BME280;7060;43.770;4.008;2022-08-27T07:04:52;100571.16;;;29.23;39.11
13974;BME280;7060;43.770;4.008;2022-08-27T07:07:22;100573.41;;;29.56;38.20
13974;BME280;7060;43.770;4.008;2022-08-27T07:10:02;100572.84;;;29.75;37.57
13974;BME280;7060;43.770;4.008;2022-08-27T07:12:31;100579.97;;;29.96;37.25
13974;BME280;7060;43.770;4.008;2022-08-27T07:15:00;100574.16;;;30.28;36.29
13974;BME280;7060;43.770;4.008;2022-08-27T07:17:31;100570.19;;;30.54;36.25
13974;BME280;7060;43.770;4.008;2022-08-27T07:20:04;100534.31;;;30.59;36.02
13974;BME280;7060;43.770;4.008;2022-08-27T07:22:34;100468.78;;;30.36;35.43
13974;BME280;7060;43.770;4.008;2022-08-27T07:25:03;100421.72;;;30.17;34.39
13974;BME280;7060;43.770;4.008;2022-08-27T07:27:33;100581.13;;;31.29;34.06
13974;BME280;7060;43.770;4.008;2022-08-27T07:30:03;100522.59;;;30.88;33.59
13974;BME280;7060;43.770;4.008;2022-08-27T07:32:33;100437.13;;;30.23;33.87
13974;BME280;7060;43.770;4.008;2022-08-27T07:35:03;100576.97;;;30.82;34.31
13974;BME280;7060;43.770;4.008;2022-08-27T07:37:35;100599.50;;;30.45;34.16
13974;BME280;7060;43.770;4.008;2022-08-27T07:40:08;100581.09;;;30.15;35.07
13974;BME280;7060;43.770;4.008;2022-08-27T07:42:41;100583.28;;;29.93;34.80
13974;BME280;7060;43.770;4.008;2022-08-27T07:45:29;100425.75;;;28.54;35.50
13974;BME280;7060;43.770;4.008;2022-08-27T07:47:59;100430.66;;;28.47;36.02
13974;BME280;7060;43.770;4.008;2022-08-27T07:50:32;100612.22;;;29.50;35.96
13974;BME280;7060;43.770;4.008;2022-08-27T07:53:02;100296.50;;;27.56;35.54
13974;BME280;7060;43.770;4.008;2022-08-27T07:55:35;100546.00;;;28.89;35.66
13974;BME280;7060;43.770;4.008;2022-08-27T07:58:11;100587.94;;;29.16;36.16
13974;BME280;7060;43.770;4.008;2022-08-27T08:00:48;100449.28;;;28.35;36.13
13974;BME280;7060;43.770;4.008;2022-08-27T08:03:27;100598.41;;;29.19;36.25
13974;BME280;7060;43.770;4.008;2022-08-27T08:06:03;100547.69;;;28.95;36.49
13974;BME280;7060;43.770;4.008;2022-08-27T08:08:42;100454.22;;;28.33;35.90
13974;BME280;7060;43.770;4.008;2022-08-27T08:11:14;100532.78;;;28.76;35.85
13974;BME280;7060;43.770;4.008;2022-08-27T08:13:45;100308.47;;;27.35;36.53
13974;BME280;7060;43.770;4.008;2022-08-27T08:16:15;100596.75;;;29.18;36.14
13974;BME280;7060;43.770;4.008;2022-08-27T08:18:49;100523.16;;;28.73;36.26
13974;BME280;7060;43.770;4.008;2022-08-27T08:21:40;100597.84;;;29.22;35.66
13974;BME280;7060;43.770;4.008;2022-08-27T08:24:09;100441.56;;;28.31;35.85
13974;BME280;7060;43.770;4.008;2022-08-27T08:26:38;100605.31;;;29.37;36.04
13974;BME280;7060;43.770;4.008;2022-08-27T08:29:11;100440.00;;;28.41;35.79
13974;BME280;7060;43.770;4.008;2022-08-27T08:31:51;100612.81;;;29.57;36.17
13974;BME280;7060;43.770;4.008;2022-08-27T08:34:22;100546.38;;;29.28;35.18
13974;BME280;7060;43.770;4.008;2022-08-27T08:36:54;100533.16;;;29.20;35.53
13974;BME280;7060;43.770;4.008;2022-08-27T08:39:25;100555.47;;;29.34;35.05
13974;BME280;7060;43.770;4.008;2022-08-27T08:41:56;100599.56;;;29.79;35.04
13974;BME280;7060;43.770;4.008;2022-08-27T08:44:33;100594.06;;;29.89;34.36
13974;BME280;7060;43.770;4.008;2022-08-27T08:47:06;100406.25;;;28.81;34.77
13974;BME280;7060;43.770;4.008;2022-08-27T08:49:46;100439.03;;;29.08;33.84
13974;BME280;7060;43.770;4.008;2022-08-27T08:52:31;100140.78;;;27.36;34.24
13974;BME280;7060;43.770;4.008;2022-08-27T08:55:12;100447.81;;;29.35;33.34
13974;BME280;7060;43.770;4.008;2022-08-27T08:57:46;100271.13;;;28.37;33.73
13974;BME280;7060;43.770;4.008;2022-08-27T09:00:32;100514.66;;;29.96;33.45
13974;BME280;7060;43.770;4.008;2022-08-27T09:03:01;100308.81;;;28.82;32.97
13974;BME280;7060;43.770;4.008;2022-08-27T09:05:30;100168.88;;;28.04;33.63
13974;BME280;7060;43.770;4.008;2022-08-27T09:08:12;100383.63;;;29.60;32.46
13974;BME280;7060;43.770;4.008;2022-08-27T09:11:06;100355.25;;;29.59;33.05
13974;BME280;7060;43.770;4.008;2022-08-27T09:13:41;100584.25;;;31.17;32.57
13974;BME280;7060;43.770;4.008;2022-08-27T09:16:12;100226.75;;;29.24;31.69
13974;BME280;7060;43.770;4.008;2022-08-27T09:18:41;100414.13;;;30.43;31.23
13974;BME280;7060;43.770;4.008;2022-08-27T09:21:23;100544.75;;;31.22;32.12
13974;BME280;7060;43.770;4.008;2022-08-27T09:24:09;100277.28;;;29.59;32.28
13974;BME280;7060;43.770;4.008;2022-08-27T09:26:43;100123.72;;;28.71;32.05
13974;BME280;7060;43.770;4.008;2022-08-27T09:29:16;100576.63;;;31.43;31.65
13974;BME280;7060;43.770;4.008;2022-08-27T09:31:58;100583.22;;;31.47;31.58
13974;BME280;7060;43.770;4.008;2022-08-27T09:34:34;100342.91;;;30.06;31.80
13974;BME280;7060;43.770;4.008;2022-08-27T09:37:05;100452.34;;;30.65;31.72
13974;BME280;7060;43.770;4.008;2022-08-27T09:39:46;100572.06;;;31.57;31.57
13974;BME280;7060;43.770;4.008;2022-08-27T09:42:26;100575.44;;;31.54;31.58
13974;BME280;7060;43.770;4.008;2022-08-27T09:45:00;100547.63;;;31.41;32.04
13974;BME280;7060;43.770;4.008;2022-08-27T09:47:44;100502.78;;;31.15;31.36
13974;BME280;7060;43.770;4.008;2022-08-27T09:50:17;100580.56;;;31.66;30.85
13974;BME280;7060;43.770;4.008;2022-08-27T09:52:50;100587.50;;;31.63;31.14
13974;BME280;7060;43.770;4.008;2022-08-27T09:55:35;100124.72;;;28.90;31.23
13974;BME280;7060;43.770;4.008;2022-08-27T09:58:19;100570.88;;;31.69;30.63
13974;BME280;7060;43.770;4.008;2022-08-27T10:00:59;100537.03;;;31.53;30.28
13974;BME280;7060;43.770;4.008;2022-08-27T10:03:29;100327.00;;;30.37;30.65
13974;BME280;7060;43.770;4.008;2022-08-27T10:06:00;100539.59;;;31.73;30.89
13974;BME280;7060;43.770;4.008;2022-08-27T10:08:34;100414.50;;;31.05;30.69
13974;BME280;7060;43.770;4.008;2022-08-27T10:11:13;100262.91;;;30.16;30.48
13974;BME280;7060;43.770;4.008;2022-08-27T10:13:50;100547.72;;;32.17;30.02
13974;BME280;7060;43.770;4.008;2022-08-27T10:19:33;100420.16;;;31.52;30.48
13974;BME280;7060;43.770;4.008;2022-08-27T10:22:12;100561.19;;;32.53;29.82
13974;BME280;7060;43.770;4.008;2022-08-27T10:24:54;100473.34;;;32.16;29.56
13974;BME280;7060;43.770;4.008;2022-08-27T10:27:35;100554.00;;;32.71;29.34
13974;BME280;7060;43.770;4.008;2022-08-27T10:30:09;100361.63;;;31.50;30.03
13974;BME280;7060;43.770;4.008;2022-08-27T10:32:56;100257.13;;;31.05;29.46
13974;BME280;7060;43.770;4.008;2022-08-27T10:35:33;100546.94;;;33.02;28.40
13974;BME280;7060;43.770;4.008;2022-08-27T10:38:18;100550.09;;;33.14;28.51
13974;BME280;7060;43.770;4.008;2022-08-27T10:40:53;100447.19;;;32.51;28.08
13974;BME280;7060;43.770;4.008;2022-08-27T10:43:38;100538.63;;;33.21;28.13
13974;BME280;7060;43.770;4.008;2022-08-27T10:46:27;100536.03;;;33.29;28.30
13974;BME280;7060;43.770;4.008;2022-08-27T10:49:05;100290.13;;;31.86;27.70
13974;BME280;7060;43.770;4.008;2022-08-27T10:51:52;100538.34;;;33.41;28.25
13974;BME280;7060;43.770;4.008;2022-08-27T10:54:31;100371.72;;;32.45;28.05
13974;BME280;7060;43.770;4.008;2022-08-27T10:57:10;100485.06;;;33.25;27.27
13974;BME280;7060;43.770;4.008;2022-08-27T11:00:06;100537.16;;;33.61;26.78
13974;BME280;7060;43.770;4.008;2022-08-27T11:02:41;100483.91;;;33.32;26.87
13974;BME280;7060;43.770;4.008;2022-08-27T11:05:17;100509.00;;;33.54;26.77
13974;BME280;7060;43.770;4.008;2022-08-27T11:07:50;100520.69;;;33.83;27.29
13974;BME280;7060;43.770;4.008;2022-08-27T11:10:27;100516.47;;;33.86;27.14
13974;BME280;7060;43.770;4.008;2022-08-27T11:13:03;100484.81;;;33.73;27.39
13974;BME280;7060;43.770;4.008;2022-08-27T11:15:39;100509.00;;;33.86;26.48
13974;BME280;7060;43.770;4.008;2022-08-27T11:18:14;100503.28;;;33.78;26.55
13974;BME280;7060;43.770;4.008;2022-08-27T11:20:49;100509.44;;;33.75;27.00
13974;BME280;7060;43.770;4.008;2022-08-27T11:23:24;100460.84;;;33.50;26.52
13974;BME280;7060;43.770;4.008;2022-08-27T11:25:55;100502.09;;;33.84;27.15
13974;BME280;7060;43.770;4.008;2022-08-27T11:28:30;100490.22;;;33.97;26.49
13974;BME280;7060;43.770;4.008;2022-08-27T11:31:11;100495.75;;;33.97;26.89
13974;BME280;7060;43.770;4.008;2022-08-27T11:33:46;100444.06;;;33.74;26.98
13974;BME280;7060;43.770;4.008;2022-08-27T11:36:45;100497.28;;;34.03;26.38
13974;BME280;7060;43.770;4.008;2022-08-27T11:39:32;100450.91;;;33.76;26.56
13974;BME280;7060;43.770;4.008;2022-08-27T11:42:08;100281.00;;;32.75;26.46
13974;BME280;7060;43.770;4.008;2022-08-27T11:44:42;100314.41;;;32.97;26.28
13974;BME280;7060;43.770;4.008;2022-08-27T11:47:19;100435.22;;;33.72;26.68
13974;BME280;7060;43.770;4.008;2022-08-27T11:49:50;100386.13;;;33.45;26.96
13974;BME280;7060;43.770;4.008;2022-08-27T11:52:24;100479.50;;;34.18;26.46
13974;BME280;7060;43.770;4.008;2022-08-27T11:55:08;100470.97;;;34.28;25.58
13974;BME280;7060;43.770;4.008;2022-08-27T11:57:38;100470.16;;;34.27;25.54
13974;BME280;7060;43.770;4.008;2022-08-27T12:00:16;100462.25;;;34.35;25.53
13974;BME280;7060;43.770;4.008;2022-08-27T12:02:57;100454.75;;;34.35;26.25
13974;BME280;7060;43.770;4.008;2022-08-27T12:05:38;100328.53;;;33.55;25.34
13974;BME280;7060;43.770;4.008;2022-08-27T12:08:17;100457.00;;;34.19;25.96
13974;BME280;7060;43.770;4.008;2022-08-27T12:11:10;100447.34;;;34.17;26.62
13974;BME280;7060;43.770;4.008;2022-08-27T12:13:45;100445.19;;;34.27;26.48
13974;BME280;7060;43.770;4.008;2022-08-27T12:16:24;100445.91;;;34.19;25.88
13974;BME280;7060;43.770;4.008;2022-08-27T12:21:59;100224.06;;;33.01;26.60
13974;BME280;7060;43.770;4.008;2022-08-27T12:24:46;100439.19;;;34.48;26.05
13974;BME280;7060;43.770;4.008;2022-08-27T12:27:28;100428.50;;;34.55;26.35
13974;BME280;7060;43.770;4.008;2022-08-27T12:30:00;100434.72;;;34.60;25.92
13974;BME280;7060;43.770;4.008;2022-08-27T12:32:35;100381.75;;;34.35;26.20
13974;BME280;7060;43.770;4.008;2022-08-27T12:35:13;100433.16;;;34.68;25.71
13974;BME280;7060;43.770;4.008;2022-08-27T12:37:49;100420.22;;;34.77;26.20
13974;BME280;7060;43.770;4.008;2022-08-27T12:40:27;100274.94;;;33.74;25.57
13974;BME280;7060;43.770;4.008;2022-08-27T12:43:06;100431.91;;;34.38;25.66
13974;BME280;7060;43.770;4.008;2022-08-27T12:45:43;100402.47;;;33.87;26.20
13974;BME280;7060;43.770;4.008;2022-08-27T12:48:13;100431.75;;;33.80;26.57
13974;BME280;7060;43.770;4.008;2022-08-27T12:50:50;100417.88;;;33.66;27.36
13974;BME280;7060;43.770;4.008;2022-08-27T12:56:43;100401.66;;;33.27;26.91
13974;BME280;7060;43.770;4.008;2022-08-27T12:59:35;100419.41;;;33.26;27.39
13974;BME280;7060;43.770;4.008;2022-08-27T13:02:18;100407.50;;;33.25;27.48
13974;BME280;7060;43.770;4.008;2022-08-27T13:04:51;100414.31;;;33.33;27.31
13974;BME280;7060;43.770;4.008;2022-08-27T13:07:29;100296.19;;;32.77;26.66
13974;BME280;7060;43.770;4.008;2022-08-27T13:10:08;100354.41;;;33.37;27.34
13974;BME280;7060;43.770;4.008;2022-08-27T13:12:37;100407.63;;;33.94;26.64
13974;BME280;7060;43.770;4.008;2022-08-27T13:15:07;100402.25;;;34.11;26.30
13974;BME280;7060;43.770;4.008;2022-08-27T13:17:42;100404.28;;;34.33;26.35
13974;BME280;7060;43.770;4.008;2022-08-27T13:20:15;100389.66;;;34.41;26.02
13974;BME280;7060;43.770;4.008;2022-08-27T13:22:50;100395.09;;;34.46;25.46
13974;BME280;7060;43.770;4.008;2022-08-27T13:25:27;100399.09;;;34.54;25.88
13974;BME280;7060;43.770;4.008;2022-08-27T13:28:00;100362.13;;;34.31;24.94
13974;BME280;7060;43.770;4.008;2022-08-27T13:30:35;100383.19;;;34.46;25.18
13974;BME280;7060;43.770;4.008;2022-08-27T13:33:07;100391.53;;;34.32;24.93
13974;BME280;7060;43.770;4.008;2022-08-27T13:35:36;100250.72;;;33.24;25.21
13974;BME280;7060;43.770;4.008;2022-08-27T13:38:10;100388.19;;;33.80;25.63
13974;BME280;7060;43.770;4.008;2022-08-27T13:40:51;100318.03;;;33.11;26.52
13974;BME280;7060;43.770;4.008;2022-08-27T13:43:29;100381.72;;;33.57;26.27